Time;durP1;ratioP1;P1;durP2;ratioP2;P2;SDS_P1;SDS_P2;PMS_P1;PMS_P2;Temp;Humidity;BMP_temperature;BMP_pressure;BME280_temperature;BME280_humidity;BME280_pressure;Samples;Min_cycle;Max_cycle;Signal;HPM_P1;HPM_P2
2021/03/16 00:01:33;;;;;;;2.67;1.20;;;;;;;6.95;100.00;98292.63;4993311;28;20718;-69
2021/03/16 00:04:00;;;;;;;6.83;1.80;;;;;;;7.12;100.00;98283.63;4994947;28;20216;-69
2021/03/16 00:06:27;;;;;;;3.47;1.50;;;;;;;7.20;100.00;98283.59;4993674;28;20201;-70
2021/03/16 00:08:54;;;;;;;3.90;1.67;;;;;;;6.80;100.00;98289.03;4995241;28;20220;-70
2021/03/16 00:11:20;;;;;;;9.13;1.50;;;;;;;7.05;100.00;98292.47;4996422;28;20604;-70
2021/03/16 00:13:47;;;;;;;6.27;1.60;;;;;;;6.81;100.00;98293.34;4994607;28;20206;-70
2021/03/16 00:16:15;;;;;;;5.47;1.90;;;;;;;6.68;100.00;98305.47;4994129;28;20221;-70
2021/03/16 00:18:42;;;;;;;3.70;1.30;;;;;;;6.96;100.00;98294.28;4992516;28;20259;-71
2021/03/16 00:21:08;;;;;;;5.37;1.50;;;;;;;6.95;100.00;98297.13;4993946;28;20705;-71
2021/03/16 00:23:35;;;;;;;2.80;1.60;;;;;;;6.85;100.00;98294.66;4989501;28;20215;-71
2021/03/16 00:26:02;;;;;;;2.63;1.40;;;;;;;6.92;100.00;98300.97;4990091;28;20213;-71
2021/03/16 00:28:29;;;;;;;3.10;1.23;;;;;;;6.98;100.00;98304.75;4995077;28;20712;-71
2021/03/16 00:30:56;;;;;;;3.53;1.60;;;;;;;6.92;100.00;98314.22;4998117;28;20238;-71
2021/03/16 00:33:24;;;;;;;7.63;1.80;;;;;;;7.09;100.00;98307.00;4993690;28;20209;-70
2021/03/16 00:35:50;;;;;;;2.83;1.40;;;;;;;7.02;100.00;98300.75;4993263;28;20233;-70
2021/03/16 00:38:17;;;;;;;5.47;1.63;;;;;;;6.93;100.00;98307.91;4999406;28;20214;-71
2021/03/16 00:40:44;;;;;;;5.67;1.67;;;;;;;6.73;100.00;98305.81;4992195;28;20223;-71
2021/03/16 00:43:11;;;;;;;5.57;1.87;;;;;;;6.97;100.00;98308.41;4989803;28;20214;-70
2021/03/16 00:45:38;;;;;;;5.03;1.80;;;;;;;6.79;100.00;98315.72;4995029;28;20211;-70
2021/03/16 00:48:06;;;;;;;8.40;2.23;;;;;;;6.51;100.00;98312.66;4992027;28;20211;-71
2021/03/16 00:50:33;;;;;;;4.03;2.00;;;;;;;6.71;100.00;98310.47;4994144;28;20235;-70
2021/03/16 00:53:00;;;;;;;3.77;1.60;;;;;;;6.77;100.00;98310.63;4992531;28;20735;-70
2021/03/16 00:55:27;;;;;;;2.90;1.30;;;;;;;6.64;100.00;98302.34;4991409;28;20221;-70
2021/03/16 00:57:54;;;;;;;4.13;1.20;;;;;;;6.81;100.00;98311.91;4987042;28;20210;-70
2021/03/16 01:00:21;;;;;;;3.37;1.20;;;;;;;6.76;100.00;98314.25;4993974;28;20213;-70
2021/03/16 01:02:48;;;;;;;3.03;1.50;;;;;;;6.63;100.00;98313.13;4992624;28;20682;-71
2021/03/16 01:05:15;;;;;;;5.27;1.20;;;;;;;6.60;100.00;98308.97;5000137;28;20221;-71
2021/03/16 01:07:43;;;;;;;5.80;1.60;;;;;;;6.56;100.00;98313.00;4993499;28;20209;-71
2021/03/16 01:10:13;;;;;;;4.20;1.20;;;;;;;6.58;100.00;98321.59;4992385;28;20213;-71
2021/03/16 01:12:40;;;;;;;3.87;1.20;;;;;;;6.59;100.00;98325.88;4999531;28;20224;-71
2021/03/16 01:15:08;;;;;;;4.00;1.33;;;;;;;6.45;100.00;98318.63;4999828;28;20208;-71
2021/03/16 01:17:35;;;;;;;4.43;1.63;;;;;;;6.60;100.00;98321.44;4989133;28;20214;-71
2021/03/16 01:20:03;;;;;;;5.33;1.80;;;;;;;6.44;100.00;98324.09;4998518;28;20216;-71
2021/03/16 01:22:30;;;;;;;4.70;1.67;;;;;;;6.62;100.00;98341.47;4987360;28;20212;-71
2021/03/16 01:24:58;;;;;;;2.67;1.20;;;;;;;6.66;100.00;98340.13;4993049;28;20242;-71
2021/03/16 01:27:25;;;;;;;9.90;2.10;;;;;;;6.37;100.00;98331.06;4992517;28;20693;-71
2021/03/16 01:29:51;;;;;;;4.30;1.10;;;;;;;6.82;100.00;98333.97;4991860;28;20207;-69
2021/03/16 01:32:18;;;;;;;2.70;1.30;;;;;;;6.70;100.00;98341.44;4992358;28;20237;-70
2021/03/16 01:34:45;;;;;;;2.70;1.30;;;;;;;6.62;100.00;98348.59;4998643;28;20236;-69
2021/03/16 01:37:12;;;;;;;3.53;1.23;;;;;;;6.60;100.00;98340.00;4992740;28;20213;-69
2021/03/16 01:39:38;;;;;;;2.33;1.27;;;;;;;6.69;100.00;98344.25;4996743;28;20291;-70
2021/03/16 01:42:07;;;;;;;3.97;1.47;;;;;;;6.86;100.00;98343.25;4988834;28;20233;-70
2021/03/16 01:44:33;;;;;;;3.67;1.60;;;;;;;6.70;100.00;98344.09;4996782;28;20305;-70
2021/03/16 01:47:00;;;;;;;3.77;1.40;;;;;;;6.68;100.00;98339.97;5000929;28;20204;-70
2021/03/16 01:49:27;;;;;;;5.63;1.50;;;;;;;6.73;100.00;98345.59;4996274;28;20208;-70
2021/03/16 01:51:54;;;;;;;6.23;1.97;;;;;;;6.47;100.00;98342.31;4997408;28;20225;-70
2021/03/16 01:54:21;;;;;;;5.23;1.50;;;;;;;6.57;100.00;98350.91;4991796;28;20242;-70
2021/03/16 01:56:49;;;;;;;6.17;1.47;;;;;;;6.55;100.00;98344.97;4993725;28;20211;-70
2021/03/16 01:59:17;;;;;;;3.47;2.07;;;;;;;6.45;100.00;98345.13;4992077;28;20633;-70
2021/03/16 02:01:45;;;;;;;7.23;1.43;;;;;;;6.48;100.00;98342.16;4997969;28;20231;-70
2021/03/16 02:04:12;;;;;;;7.60;1.70;;;;;;;6.49;100.00;98348.28;4992612;28;20221;-70
2021/03/16 02:06:44;;;;;;;8.87;2.03;;;;;;;6.27;100.00;98344.47;5000993;28;20238;-70
2021/03/16 02:09:15;;;;;;;4.93;2.00;;;;;;;6.41;100.00;98343.81;5000094;28;20254;-70
2021/03/16 02:11:48;;;;;;;3.17;1.53;;;;;;;6.35;100.00;98352.41;4994083;28;20229;-69
2021/03/16 02:14:20;;;;;;;4.63;1.97;;;;;;;6.49;100.00;98351.75;4999785;28;20209;-70
2021/03/16 02:16:52;;;;;;;4.07;1.60;;;;;;;6.36;100.00;98350.59;4992345;28;20632;-70
2021/03/16 02:19:28;;;;;;;4.87;2.00;;;;;;;6.65;100.00;98349.06;4996351;28;20215;-71
2021/03/16 02:21:55;;;;;;;6.47;1.67;;;;;;;6.41;100.00;98350.94;4989555;28;20221;-70
2021/03/16 02:24:38;;;;;;;5.63;1.70;;;;;;;6.50;100.00;98356.06;4997105;28;20269;-69
2021/03/16 02:27:13;;;;;;;5.50;1.27;;;;;;;6.54;100.00;98344.13;4995051;28;20204;-70
2021/03/16 02:29:45;;;;;;;5.67;1.47;;;;;;;6.40;100.00;98350.09;4994646;28;20217;-70
2021/03/16 02:32:14;;;;;;;4.97;1.47;;;;;;;6.66;100.00;98349.91;4996682;28;20229;-70
2021/03/16 02:34:42;;;;;;;9.47;1.77;;;;;;;6.57;100.00;98350.91;5000638;28;20209;-70
2021/03/16 02:37:10;;;;;;;4.33;1.40;;;;;;;6.37;100.00;98361.06;4999571;28;20573;-70
2021/03/16 02:39:38;;;;;;;4.90;1.50;;;;;;;6.31;100.00;98358.22;4999110;28;20569;-70
2021/03/16 02:42:06;;;;;;;4.97;1.90;;;;;;;6.45;100.00;98346.97;4998000;28;20251;-70
2021/03/16 02:44:34;;;;;;;5.67;2.13;;;;;;;6.26;100.00;98358.75;4998607;28;20222;-70
2021/03/16 02:47:03;;;;;;;2.67;1.13;;;;;;;6.54;100.00;98356.56;4999015;28;20205;-70
2021/03/16 02:49:32;;;;;;;2.90;1.40;;;;;;;6.49;100.00;98354.41;4993666;28;20210;-70
2021/03/16 02:51:59;;;;;;;4.53;1.70;;;;;;;6.36;100.00;98354.09;4990509;28;20228;-70
2021/03/16 02:54:26;;;;;;;5.33;1.63;;;;;;;6.37;100.00;98363.69;4989071;28;20266;-70
2021/03/16 02:56:53;;;;;;;2.80;1.33;;;;;;;6.47;100.00;98369.66;4987619;28;20210;-70
2021/03/16 02:59:20;;;;;;;5.03;1.87;;;;;;;6.52;100.00;98369.16;4990191;28;20205;-70
2021/03/16 03:01:47;;;;;;;3.63;1.60;;;;;;;6.46;100.00;98369.81;4992892;28;20237;-70
2021/03/16 03:04:15;;;;;;;6.10;1.97;;;;;;;6.51;100.00;98363.03;4992368;28;20237;-70
2021/03/16 03:06:43;;;;;;;4.70;1.57;;;;;;;6.36;100.00;98375.31;4994845;28;20209;-70
2021/03/16 03:09:13;;;;;;;3.07;1.63;;;;;;;6.25;100.00;98365.00;4995278;28;20227;-71
2021/03/16 03:11:40;;;;;;;5.13;1.63;;;;;;;6.31;100.00;98367.00;4993385;28;20598;-70
2021/03/16 03:14:08;;;;;;;3.30;1.90;;;;;;;6.30;100.00;98361.88;4987377;28;20241;-70
2021/03/16 03:16:35;;;;;;;4.30;1.40;;;;;;;6.23;100.00;98348.44;4993987;28;20215;-70
2021/03/16 03:19:01;;;;;;;6.33;1.60;;;;;;;6.26;100.00;98364.03;4998910;28;20567;-70
2021/03/16 03:21:34;;;;;;;3.17;1.53;;;;;;;6.11;100.00;98373.63;4989581;28;20267;-70
2021/03/16 03:24:05;;;;;;;4.13;2.07;;;;;;;6.03;100.00;98383.34;4994875;28;20543;-70
2021/03/16 03:26:36;;;;;;;9.40;1.73;;;;;;;6.13;100.00;98371.63;4999441;28;20204;-70
2021/03/16 03:29:04;;;;;;;4.33;1.50;;;;;;;6.25;100.00;98377.44;4989800;28;20573;-70
2021/03/16 03:31:32;;;;;;;4.33;1.70;;;;;;;6.17;100.00;98390.69;4991947;28;20594;-70
2021/03/16 03:33:59;;;;;;;3.10;1.60;;;;;;;6.05;100.00;98394.63;4988861;28;20208;-70
2021/03/16 03:36:27;;;;;;;5.50;1.73;;;;;;;6.16;100.00;98396.97;4990716;28;20212;-70
2021/03/16 03:38:55;;;;;;;3.10;1.50;;;;;;;6.03;100.00;98393.97;4989033;28;20215;-70
2021/03/16 03:41:22;;;;;;;4.80;1.50;;;;;;;6.00;100.00;98400.41;4996241;28;20220;-70
2021/03/16 03:43:49;;;;;;;8.50;1.90;;;;;;;6.02;100.00;98395.78;4997127;28;20557;-70
2021/03/16 03:46:17;;;;;;;5.63;1.67;;;;;;;5.88;100.00;98395.59;4989423;28;20291;-70
2021/03/16 03:48:44;;;;;;;2.77;1.30;;;;;;;6.16;100.00;98403.13;4993333;28;20209;-70
2021/03/16 03:51:11;;;;;;;2.47;1.40;;;;;;;5.95;100.00;98410.66;4988969;28;20232;-70
2021/03/16 03:53:40;;;;;;;5.30;1.50;;;;;;;5.98;100.00;98415.66;4994123;28;20633;-70
2021/03/16 03:56:08;;;;;;;4.77;1.40;;;;;;;5.99;100.00;98413.84;4983093;28;20214;-70
2021/03/16 03:58:38;;;;;;;6.83;1.63;;;;;;;6.03;100.00;98415.16;4992557;28;20247;-70
2021/03/16 04:01:06;;;;;;;8.33;1.50;;;;;;;5.88;100.00;98419.41;4994107;28;20264;-70
2021/03/16 04:03:34;;;;;;;6.87;2.10;;;;;;;5.98;100.00;98417.47;4996922;28;20326;-72
2021/03/16 04:06:01;;;;;;;3.37;1.37;;;;;;;6.12;100.00;98433.56;4991961;28;20613;-70
2021/03/16 04:08:28;;;;;;;5.50;1.63;;;;;;;6.12;100.00;98425.63;4992185;28;20225;-72
2021/03/16 04:10:55;;;;;;;3.10;1.43;;;;;;;6.17;100.00;98431.25;4993718;28;20236;-72
2021/03/16 04:13:23;;;;;;;3.07;1.30;;;;;;;6.25;100.00;98436.56;4995325;28;20209;-70
2021/03/16 04:15:50;;;;;;;6.00;1.37;;;;;;;6.05;100.00;98444.97;4993517;28;20206;-70
2021/03/16 04:18:17;;;;;;;7.23;1.50;;;;;;;6.00;100.00;98432.19;4993465;28;20209;-70
2021/03/16 04:20:44;;;;;;;4.00;1.30;;;;;;;5.98;100.00;98430.69;4998542;28;20224;-70
2021/03/16 04:23:11;;;;;;;4.07;1.43;;;;;;;5.70;100.00;98434.56;5014676;22;20243;-69
2021/03/16 04:25:38;;;;;;;3.87;1.50;;;;;;;5.77;100.00;98444.38;4992875;28;20200;-70
2021/03/16 04:28:05;;;;;;;3.67;1.80;;;;;;;5.73;100.00;98445.66;4988423;28;20286;-70
2021/03/16 04:30:32;;;;;;;5.13;1.30;;;;;;;5.65;100.00;98448.31;4993498;28;20202;-70
2021/03/16 04:33:00;;;;;;;6.60;1.50;;;;;;;5.60;100.00;98450.59;4993873;28;20224;-70
2021/03/16 04:35:27;;;;;;;5.37;1.43;;;;;;;5.65;100.00;98461.53;4995041;28;20204;-70
2021/03/16 04:37:54;;;;;;;3.63;1.47;;;;;;;5.97;100.00;98461.69;4989778;28;20204;-70
2021/03/16 04:40:21;;;;;;;1.73;0.90;;;;;;;5.81;100.00;98464.28;4992757;28;20612;-71
2021/03/16 04:42:48;;;;;;;2.93;1.40;;;;;;;5.95;100.00;98470.78;4994766;28;20223;-70
2021/03/16 04:45:16;;;;;;;4.63;1.50;;;;;;;5.83;100.00;98462.28;4993779;28;20207;-70
2021/03/16 04:47:43;;;;;;;2.90;1.10;;;;;;;5.86;100.00;98453.19;4993619;28;20209;-70
2021/03/16 04:50:11;;;;;;;2.73;1.30;;;;;;;5.83;100.00;98470.22;4995605;28;20209;-70
2021/03/16 04:52:37;;;;;;;7.67;1.73;;;;;;;5.83;100.00;98464.13;4994137;28;20252;-70
2021/03/16 04:55:05;;;;;;;7.50;1.20;;;;;;;6.12;100.00;98465.38;4997402;28;20209;-70
2021/03/16 04:57:32;;;;;;;1.60;0.73;;;;;;;5.79;100.00;98463.56;4992826;28;20215;-71
2021/03/16 04:59:59;;;;;;;5.10;1.20;;;;;;;5.92;100.00;98463.13;5003149;28;20645;-71
2021/03/16 05:02:26;;;;;;;3.33;1.10;;;;;;;5.88;100.00;98475.03;4998869;28;20216;-71
2021/03/16 05:04:53;;;;;;;2.07;1.20;;;;;;;5.72;100.00;98457.25;4995140;28;20212;-71
2021/03/16 05:07:20;;;;;;;1.67;0.93;;;;;;;5.74;100.00;98459.75;4991690;28;20205;-71
2021/03/16 05:09:47;;;;;;;5.70;1.07;;;;;;;5.92;100.00;98460.50;4995060;28;20202;-71
2021/03/16 05:12:13;;;;;;;4.00;1.53;;;;;;;5.93;100.00;98459.50;4983982;28;20244;-71
2021/03/16 05:14:40;;;;;;;2.93;0.97;;;;;;;5.90;100.00;98463.28;4999531;28;20204;-71
2021/03/16 05:17:07;;;;;;;2.73;1.10;;;;;;;5.93;100.00;98478.88;5002144;28;20285;-71
2021/03/16 05:19:34;;;;;;;6.73;0.93;;;;;;;6.03;100.00;98470.78;5013831;28;20206;-71
2021/03/16 05:22:02;;;;;;;6.73;1.57;;;;;;;5.75;100.00;98488.72;5010734;28;20227;-71
2021/03/16 05:24:28;;;;;;;10.80;1.30;;;;;;;5.86;100.00;98483.16;4996907;28;20240;-70
2021/03/16 05:26:55;;;;;;;3.50;1.30;;;;;;;5.80;100.00;98478.50;5002505;28;20586;-71
2021/03/16 05:29:22;;;;;;;2.10;1.13;;;;;;;5.92;100.00;98485.16;4994493;28;20204;-71
2021/03/16 05:31:49;;;;;;;10.13;2.13;;;;;;;6.10;100.00;98493.00;4996125;28;20246;-71
2021/03/16 05:34:15;;;;;;;5.53;1.60;;;;;;;5.94;100.00;98498.25;4994302;28;20584;-70
2021/03/16 05:36:42;;;;;;;7.27;1.40;;;;;;;5.92;100.00;98511.66;4990395;28;20205;-71
2021/03/16 05:39:10;;;;;;;4.27;1.33;;;;;;;5.99;100.00;98507.38;4992027;28;20212;-71
2021/03/16 05:41:39;;;;;;;3.63;1.27;;;;;;;6.01;100.00;98520.47;4991508;28;20261;-70
2021/03/16 05:44:06;;;;;;;3.43;1.00;;;;;;;6.04;100.00;98515.66;4988205;28;20233;-71
2021/03/16 05:46:33;;;;;;;4.80;1.40;;;;;;;6.25;100.00;98516.06;4992672;28;20215;-71
2021/03/16 05:49:04;;;;;;;5.37;1.07;;;;;;;6.44;100.00;98522.94;4998648;28;20262;-71
2021/03/16 05:51:31;;;;;;;4.27;1.33;;;;;;;6.16;100.00;98530.31;4993895;28;20257;-72
2021/03/16 05:53:57;;;;;;;4.20;1.20;;;;;;;6.19;100.00;98534.44;4986974;28;20768;-71
2021/03/16 05:56:26;;;;;;;4.20;1.20;;;;;;;6.44;100.00;98541.47;4991985;28;20208;-71
2021/03/16 05:58:53;;;;;;;5.03;1.47;;;;;;;6.37;100.00;98543.09;4997283;28;20278;-71
2021/03/16 06:01:20;;;;;;;6.00;1.60;;;;;;;6.37;100.00;98551.06;4992569;28;20205;-72
2021/03/16 06:03:47;;;;;;;5.67;1.60;;;;;;;6.30;100.00;98553.50;4992139;28;20247;-71
2021/03/16 06:06:14;;;;;;;7.67;1.47;;;;;;;6.52;100.00;98547.63;4990291;28;20209;-71
2021/03/16 06:08:41;;;;;;;5.73;1.40;;;;;;;6.39;100.00;98555.19;4991860;28;20660;-71
2021/03/16 06:11:08;;;;;;;4.83;1.30;;;;;;;6.44;100.00;98547.59;4990839;28;20244;-71
2021/03/16 06:13:48;;;;;;;7.97;1.50;;;;;;;6.21;100.00;98551.84;4991735;28;20282;-71
2021/03/16 06:16:16;;;;;;;3.97;1.17;;;;;;;6.18;100.00;98552.16;4991460;28;20273;-70
2021/03/16 06:18:43;;;;;;;2.80;1.23;;;;;;;6.32;100.00;98551.56;4990324;28;20206;-71
2021/03/16 06:21:11;;;;;;;9.83;1.20;;;;;;;6.41;100.00;98560.34;4987577;28;20221;-70
2021/03/16 06:23:39;;;;;;;9.10;1.30;;;;;;;6.39;100.00;98557.03;4991436;28;20259;-69
2021/03/16 06:26:12;;;;;;;7.97;1.43;;;;;;;6.58;100.00;98556.72;4991969;28;20211;-73
2021/03/16 06:28:40;;;;;;;7.03;1.60;;;;;;;6.36;100.00;98555.53;4989702;28;20208;-71
2021/03/16 06:31:07;;;;;;;6.33;1.50;;;;;;;6.38;100.00;98556.19;4991762;28;20235;-73
2021/03/16 06:33:35;;;;;;;4.87;1.70;;;;;;;6.50;100.00;98565.50;4989976;28;20234;-71
2021/03/16 06:36:04;;;;;;;3.27;1.33;;;;;;;6.40;100.00;98570.13;4991085;28;20209;-72
2021/03/16 06:38:31;;;;;;;4.37;1.40;;;;;;;6.46;100.00;98573.94;4991352;28;20692;-70
2021/03/16 06:41:10;;;;;;;6.00;1.40;;;;;;;6.22;100.00;98573.88;4997227;28;20658;-78
2021/03/16 06:43:37;;;;;;;4.57;1.40;;;;;;;6.51;100.00;98569.00;4992270;28;20224;-74
2021/03/16 06:46:05;;;;;;;4.60;1.67;;;;;;;6.69;100.00;98573.19;4994792;28;20206;-74
2021/03/16 06:48:35;;;;;;;7.10;2.17;;;;;;;6.27;100.00;98575.06;4995058;28;20264;-72
2021/03/16 06:51:12;;;;;;;8.90;1.67;;;;;;;6.57;100.00;98578.94;4992908;28;20230;-72
2021/03/16 06:53:39;;;;;;;2.87;1.63;;;;;;;6.36;100.00;98584.69;4992809;28;20228;-71
2021/03/16 06:56:06;;;;;;;4.90;1.83;;;;;;;6.47;100.00;98592.34;4992702;28;20681;-69
2021/03/16 06:58:34;;;;;;;6.10;1.40;;;;;;;6.61;100.00;98594.38;4993032;28;20208;-69
2021/03/16 07:01:10;;;;;;;4.50;1.70;;;;;;;6.60;100.00;98594.53;5000880;28;20206;-70
2021/03/16 07:03:37;;;;;;;5.20;1.83;;;;;;;6.41;100.00;98600.97;4997861;28;20653;-70
2021/03/16 07:06:12;;;;;;;6.37;1.70;;;;;;;6.35;100.00;98608.72;4993657;28;20216;-71
2021/03/16 07:08:40;;;;;;;7.53;1.67;;;;;;;6.18;100.00;98601.66;4993287;28;20213;-70
2021/03/16 07:11:08;;;;;;;4.27;1.80;;;;;;;6.34;100.00;98610.53;4994804;28;20236;-69
2021/03/16 07:13:35;;;;;;;5.67;1.43;;;;;;;6.43;100.00;98625.47;4995983;28;20328;-72
2021/03/16 07:16:03;;;;;;;4.20;1.57;;;;;;;6.38;100.00;98627.78;4999631;28;20211;-71
2021/03/16 07:18:34;;;;;;;3.03;1.40;;;;;;;6.27;100.00;98636.00;4995211;28;20300;-70
2021/03/16 07:21:04;;;;;;;4.60;1.60;;;;;;;6.19;100.00;98638.63;4998740;28;20223;-71
2021/03/16 07:23:36;;;;;;;7.30;1.67;;;;;;;6.06;100.00;98640.03;4990180;28;20294;-70
2021/03/16 07:26:04;;;;;;;5.53;1.50;;;;;;;5.97;100.00;98636.50;4994984;28;20223;-76
2021/03/16 07:28:33;;;;;;;5.80;1.90;;;;;;;5.89;100.00;98649.69;4995830;28;20211;-79
2021/03/16 07:31:00;;;;;;;3.73;1.57;;;;;;;5.93;100.00;98644.91;5001950;28;20318;-79
2021/03/16 07:33:28;;;;;;;5.17;1.67;;;;;;;6.12;100.00;98644.69;5000638;28;20227;-77
2021/03/16 07:35:56;;;;;;;7.33;1.70;;;;;;;6.00;100.00;98649.44;4993006;28;20728;-72
2021/03/16 07:38:23;;;;;;;7.77;1.80;;;;;;;5.87;100.00;98654.34;4988491;28;20222;-72
2021/03/16 07:40:52;;;;;;;6.63;2.00;;;;;;;5.95;100.00;98661.50;4990129;28;20209;-72
2021/03/16 07:43:19;;;;;;;4.47;1.37;;;;;;;6.21;100.00;98657.00;4992293;28;20294;-73
2021/03/16 07:45:46;;;;;;;10.63;1.93;;;;;;;6.15;100.00;98662.94;4991784;28;20311;-72
2021/03/16 07:48:17;;;;;;;4.97;1.63;;;;;;;6.38;100.00;98664.88;4994224;28;20243;-72
2021/03/16 07:50:44;;;;;;;5.87;1.53;;;;;;;6.26;100.00;98673.28;4994055;28;20305;-72
2021/03/16 07:53:23;;;;;;;3.77;1.80;;;;;;;6.58;100.00;98676.91;4993762;28;20284;-72
2021/03/16 07:55:49;;;;;;;6.77;1.73;;;;;;;6.54;100.00;98678.22;4986027;28;20206;-72
2021/03/16 07:58:25;;;;;;;5.97;1.70;;;;;;;6.70;100.00;98674.81;4993293;28;20670;-73
2021/03/16 08:01:04;;;;;;;5.47;1.70;;;;;;;6.89;100.00;98678.00;4993572;28;20244;-72
2021/03/16 08:03:30;;;;;;;5.20;1.40;;;;;;;6.93;100.00;98676.69;4988165;28;20234;-72
2021/03/16 08:05:57;;;;;;;7.23;1.83;;;;;;;7.24;100.00;98668.94;4991336;28;20206;-72
2021/03/16 08:08:25;;;;;;;5.27;1.40;;;;;;;7.40;100.00;98685.72;4992549;28;20299;-73
2021/03/16 08:10:52;;;;;;;5.87;1.80;;;;;;;7.61;100.00;98677.28;4992505;28;20203;-73
2021/03/16 08:13:30;;;;;;;6.63;1.83;;;;;;;7.32;100.00;98671.63;4991762;28;20392;-73
2021/03/16 08:16:13;;;;;;;4.13;1.60;;;;;;;7.00;100.00;98685.66;5000527;28;20234;-73
2021/03/16 08:18:46;;;;;;;5.07;1.47;;;;;;;7.17;100.00;98684.72;4990730;28;20214;-72
2021/03/16 08:21:19;;;;;;;6.87;1.70;;;;;;;6.90;100.00;98692.13;4995726;28;20202;-72
2021/03/16 08:23:49;;;;;;;5.70;1.70;;;;;;;7.06;100.00;98679.69;4993178;28;20324;-73
2021/03/16 08:26:26;;;;;;;7.33;1.80;;;;;;;6.84;100.00;98685.63;4989302;28;20277;-73
2021/03/16 08:28:55;;;;;;;4.63;1.30;;;;;;;7.10;100.00;98685.53;4993511;28;20210;-73
2021/03/16 08:31:24;;;;;;;6.20;1.70;;;;;;;7.08;100.00;98692.81;4991674;28;20227;-72
2021/03/16 08:33:54;;;;;;;3.33;1.30;;;;;;;6.97;100.00;98682.50;4995338;28;20284;-72
2021/03/16 08:36:26;;;;;;;7.47;1.77;;;;;;;6.97;100.00;98688.66;4985740;28;20293;-72
2021/03/16 08:38:59;;;;;;;3.57;1.23;;;;;;;7.20;100.00;98686.22;4995719;28;20216;-72
2021/03/16 08:41:39;;;;;;;6.93;1.93;;;;;;;7.17;100.00;98690.03;4994981;28;20246;-72
2021/03/16 08:44:06;;;;;;;4.57;2.30;;;;;;;6.82;100.00;98694.72;4988764;28;20229;-72
2021/03/16 08:46:49;;;;;;;8.77;2.00;;;;;;;6.98;100.00;98695.63;4986425;28;20218;-71
2021/03/16 08:49:25;;;;;;;8.53;1.77;;;;;;;7.63;100.00;98696.53;4995772;28;20217;-71
2021/03/16 08:51:52;;;;;;;5.97;1.77;;;;;;;7.54;100.00;98702.84;4987396;28;20237;-71
2021/03/16 08:54:31;;;;;;;4.43;1.70;;;;;;;7.30;100.00;98708.13;4992936;28;20649;-72
2021/03/16 08:57:01;;;;;;;6.40;1.90;;;;;;;7.56;100.00;98703.53;4987641;28;20663;-72
2021/03/16 08:59:33;;;;;;;6.10;1.83;;;;;;;7.54;100.00;98700.19;4991678;28;20240;-73
2021/03/16 09:02:02;;;;;;;6.67;2.20;;;;;;;7.27;100.00;98706.66;4993320;28;20225;-72
2021/03/16 09:04:30;;;;;;;4.90;1.87;;;;;;;7.43;100.00;98711.13;4991641;28;20241;-74
2021/03/16 09:06:57;;;;;;;5.60;1.67;;;;;;;7.19;100.00;98711.91;4989372;28;20225;-72
2021/03/16 09:09:26;;;;;;;7.50;1.90;;;;;;;6.92;100.00;98717.50;4996809;28;20252;-71
2021/03/16 09:11:56;;;;;;;4.97;1.70;;;;;;;6.89;100.00;98712.50;4990965;28;20234;-71
2021/03/16 09:14:26;;;;;;;3.37;1.53;;;;;;;7.27;100.00;98722.56;4985445;28;20250;-72
2021/03/16 09:16:55;;;;;;;4.80;2.10;;;;;;;7.37;100.00;98727.72;4992329;28;20293;-71
2021/03/16 09:19:26;;;;;;;6.00;1.93;;;;;;;6.97;100.00;98724.97;4990365;28;20648;-72
2021/03/16 09:21:57;;;;;;;4.07;1.87;;;;;;;6.57;100.00;98744.19;4990593;28;20253;-72
2021/03/16 09:24:32;;;;;;;9.93;2.90;;;;;;;6.78;100.00;98734.00;4997817;28;20232;-72
2021/03/16 09:27:04;;;;;;;4.13;1.63;;;;;;;6.33;100.00;98749.34;4987294;28;20239;-73
2021/03/16 09:29:46;;;;;;;9.40;2.27;;;;;;;6.29;100.00;98736.56;4997320;28;20643;-72
2021/03/16 09:32:16;;;;;;;5.83;2.30;;;;;;;6.33;100.00;98737.91;4991735;28;20268;-72
2021/03/16 09:34:53;;;;;;;3.13;1.57;;;;;;;6.62;100.00;98747.19;4989015;28;20260;-72
2021/03/16 09:37:24;;;;;;;6.27;2.00;;;;;;;6.82;100.00;98756.59;4985126;28;20324;-72
2021/03/16 09:39:57;;;;;;;3.00;1.73;;;;;;;6.67;100.00;98765.28;4994199;28;20268;-72
2021/03/16 09:42:42;;;;;;;2.23;1.50;;;;;;;6.09;100.00;98761.63;4992588;28;20210;-73
2021/03/16 09:45:17;;;;;;;3.70;1.60;;;;;;;6.27;100.00;98763.22;4989603;28;20208;-72
2021/03/16 09:47:49;;;;;;;4.13;1.63;;;;;;;6.48;100.00;98761.03;4991587;28;20208;-72
2021/03/16 09:50:19;;;;;;;4.60;1.73;;;;;;;6.44;100.00;98770.28;4983814;28;20233;-73
2021/03/16 09:52:47;;;;;;;8.23;1.87;;;;;;;6.35;100.00;98759.81;4981889;28;20694;-72
2021/03/16 09:55:17;;;;;;;6.80;2.10;;;;;;;6.20;100.00;98762.16;4983117;28;20576;-73
2021/03/16 09:57:48;;;;;;;5.67;2.37;;;;;;;6.40;100.00;98762.81;4987387;28;20205;-74
2021/03/16 10:00:18;;;;;;;7.10;2.17;;;;;;;6.39;100.00;98759.31;4984504;28;20300;-74
2021/03/16 10:02:45;;;;;;;5.97;2.17;;;;;;;6.42;100.00;98772.28;4990237;28;20237;-73
2021/03/16 10:05:14;;;;;;;6.30;2.70;;;;;;;6.15;100.00;98761.00;4987965;28;20202;-73
2021/03/16 10:07:41;;;;;;;7.03;2.13;;;;;;;6.39;100.00;98755.84;4989072;28;20208;-72
2021/03/16 10:10:13;;;;;;;4.83;2.53;;;;;;;6.64;100.00;98749.66;4988403;28;20236;-76
2021/03/16 10:12:49;;;;;;;8.83;2.77;;;;;;;6.84;100.00;98751.94;4988263;28;20249;-73
2021/03/16 10:15:25;;;;;;;10.17;2.70;;;;;;;6.57;100.00;98760.09;4985277;28;20665;-73
2021/03/16 10:17:53;;;;;;;6.23;2.70;;;;;;;6.87;100.00;98754.28;4987052;28;20671;-73
2021/03/16 10:20:24;;;;;;;8.13;2.90;;;;;;;7.04;100.00;98745.38;4988164;28;20264;-73
2021/03/16 10:22:57;;;;;;;8.00;2.90;;;;;;;6.55;100.00;98756.75;4990091;28;20302;-73
2021/03/16 10:25:29;;;;;;;7.03;3.37;;;;;;;7.11;100.00;98749.03;4988479;28;20217;-72
2021/03/16 10:27:59;;;;;;;5.50;2.77;;;;;;;7.51;100.00;98748.34;4991842;28;20568;-72
2021/03/16 10:30:44;;;;;;;11.70;3.10;;;;;;;7.75;100.00;98749.19;4992332;28;20210;-72
2021/03/16 10:33:12;;;;;;;8.10;2.50;;;;;;;7.91;100.00;98741.22;4992770;28;20242;-72
2021/03/16 10:35:42;;;;;;;5.83;2.60;;;;;;;7.82;100.00;98742.19;4993789;28;20211;-71
2021/03/16 10:38:09;;;;;;;6.03;2.70;;;;;;;8.13;100.00;98731.72;4990983;28;20297;-72
2021/03/16 10:40:36;;;;;;;8.43;2.33;;;;;;;7.92;100.00;98745.53;4990676;28;20254;-73
2021/03/16 10:43:04;;;;;;;5.33;2.20;;;;;;;8.19;100.00;98742.53;4993187;28;20222;-72
2021/03/16 10:45:31;;;;;;;9.93;3.07;;;;;;;8.46;100.00;98736.84;4987101;28;20204;-72
2021/03/16 10:47:58;;;;;;;8.57;2.27;;;;;;;8.62;100.00;98736.00;4993391;28;20242;-72
2021/03/16 10:50:25;;;;;;;9.33;2.47;;;;;;;8.34;100.00;98735.56;4994799;28;20226;-72
2021/03/16 10:52:52;;;;;;;7.60;2.80;;;;;;;7.92;100.00;98734.06;4994205;28;20238;-73
2021/03/16 10:55:19;;;;;;;7.17;2.97;;;;;;;7.88;100.00;98746.88;4991427;28;20560;-74
2021/03/16 10:57:46;;;;;;;6.07;2.40;;;;;;;7.48;100.00;98743.34;4994105;28;20736;-72
2021/03/16 11:00:15;;;;;;;5.87;2.03;;;;;;;7.90;100.00;98742.22;4993547;28;20548;-73
2021/03/16 11:02:42;;;;;;;5.33;2.60;;;;;;;7.43;100.00;98738.53;4994909;28;20251;-72
2021/03/16 11:05:09;;;;;;;6.93;2.40;;;;;;;7.64;100.00;98744.19;4994088;28;20213;-73
2021/03/16 11:07:36;;;;;;;8.73;2.53;;;;;;;7.55;100.00;98747.81;5002913;28;20217;-72
2021/03/16 11:12:56;;;;;;;5.57;1.87;;;;;;;7.84;100.00;98747.34;5087043;22;20254;-75
2021/03/16 11:15:24;;;;;;;5.23;2.20;;;;;;;7.95;100.00;98745.19;5000876;28;20583;-70
2021/03/16 11:17:51;;;;;;;7.50;1.73;;;;;;;8.32;100.00;98748.19;5003646;28;20366;-74
2021/03/16 11:20:18;;;;;;;8.90;2.30;;;;;;;8.53;100.00;98748.47;5005406;28;20724;-73
2021/03/16 11:22:45;;;;;;;9.73;2.70;;;;;;;7.97;100.00;98751.16;4995829;28;20220;-73
2021/03/16 11:25:12;;;;;;;14.87;2.00;;;;;;;7.97;100.00;98743.19;4996774;28;20212;-72
2021/03/16 11:27:39;;;;;;;5.83;2.13;;;;;;;8.47;100.00;98746.50;4998958;28;20216;-73
2021/03/16 11:30:08;;;;;;;3.90;1.50;;;;;;;8.73;98.66;98747.06;5009188;28;20195;-74
2021/03/16 11:32:36;;;;;;;9.07;2.53;;;;;;;8.52;99.05;98746.81;5002344;28;20321;-75
2021/03/16 11:35:04;;;;;;;5.33;2.00;;;;;;;8.04;98.33;98756.66;4994780;28;20745;-76
2021/03/16 11:37:30;;;;;;;4.53;1.60;;;;;;;7.74;97.54;98758.16;4995814;28;20207;-74
2021/03/16 11:39:57;;;;;;;5.37;1.73;;;;;;;7.58;100.00;98750.16;5003930;28;20252;-74
2021/03/16 11:42:24;;;;;;;5.63;1.83;;;;;;;7.51;100.00;98751.00;4999055;28;20226;-75
2021/03/16 11:44:51;;;;;;;5.00;1.97;;;;;;;7.42;100.00;98754.63;5000853;28;20207;-75